sensor_id;sensor_type;location;lat;lon;timestamp;pressure;altitude;pressure_sealevel;temperature;humidity
24306;BME280;12423;48.768;8.850;2023-03-01T00:01:30;97681.81;;;-1.31;100.00
24306;BME280;12423;48.768;8.850;2023-03-01T00:03:31;97681.53;;;-1.20;100.00
24306;BME280;12423;48.768;8.850;2023-03-01T00:05:32;97680.97;;;-1.32;100.00
24306;BME280;12423;48.768;8.850;2023-03-01T00:07:33;97680.16;;;-1.34;100.00
24306;BME280;12423;48.768;8.850;2023-03-01T00:09:36;97686.25;;;-1.33;100.00
24306;BME280;12423;48.768;8.850;2023-03-01T00:11:37;97688.03;;;-1.34;100.00
24306;BME280;12423;48.768;8.850;2023-03-01T00:13:39;97682.06;;;-1.40;100.00
24306;BME280;12423;48.768;8.850;2023-03-01T00:15:40;97683.03;;;-1.43;100.00
24306;BME280;12423;48.768;8.850;2023-03-01T00:17:42;97687.53;;;-1.48;100.00
24306;BME280;12423;48.768;8.850;2023-03-01T00:19:43;97679.91;;;-1.57;100.00
24306;BME280;12423;48.768;8.850;2023-03-01T00:21:44;97681.66;;;-1.56;100.00
24306;BME280;12423;48.768;8.850;2023-03-01T00:23:44;97678.09;;;-1.55;100.00
24306;BME280;12423;48.768;8.850;2023-03-01T00:25:46;97688.34;;;-1.46;100.00
24306;BME280;12423;48.768;8.850;2023-03-01T00:27:47;97690.06;;;-1.45;100.00
24306;BME280;12423;48.768;8.850;2023-03-01T00:29:49;97688.34;;;-1.46;100.00
24306;BME280;12423;48.768;8.850;2023-03-01T00:31:51;97679.75;;;-1.51;100.00
24306;BME280;12423;48.768;8.850;2023-03-01T00:33:53;97690.00;;;-1.42;100.00
24306;BME280;12423;48.768;8.850;2023-03-01T00:35:58;97687.38;;;-1.42;100.00
24306;BME280;12423;48.768;8.850;2023-03-01T00:38:00;97690.06;;;-1.45;100.00
24306;BME280;12423;48.768;8.850;2023-03-01T00:40:01;97690.31;;;-1.54;100.00
24306;BME280;12423;48.768;8.850;2023-03-01T00:42:02;97683.69;;;-1.68;100.00
24306;BME280;12423;48.768;8.850;2023-03-01T00:44:03;97683.78;;;-1.71;100.00
24306;BME280;12423;48.768;8.850;2023-03-01T00:46:17;97676.97;;;-1.78;100.00
24306;BME280;12423;48.768;8.850;2023-03-01T00:48:18;97690.19;;;-1.82;100.00
24306;BME280;12423;48.768;8.850;2023-03-01T00:50:20;97687.69;;;-1.87;100.00
24306;BME280;12423;48.768;8.850;2023-03-01T00:52:21;97685.97;;;-1.88;100.00
24306;BME280;12423;48.768;8.850;2023-03-01T00:54:22;97676.88;;;-2.08;100.00
24306;BME280;12423;48.768;8.850;2023-03-01T00:56:24;97675.00;;;-2.02;100.00
24306;BME280;12423;48.768;8.850;2023-03-01T00:58:25;97679.94;;;-1.92;100.00
24306;BME280;12423;48.768;8.850;2023-03-01T01:00:26;97681.38;;;-2.13;100.00
24306;BME280;12423;48.768;8.850;2023-03-01T01:02:27;97672.47;;;-2.06;100.00
24306;BME280;12423;48.768;8.850;2023-03-01T01:04:28;97670.50;;;-1.97;100.00
24306;BME280;12423;48.768;8.850;2023-03-01T01:06:32;97669.50;;;-1.93;100.00
24306;BME280;12423;48.768;8.850;2023-03-01T01:08:33;97668.25;;;-1.78;100.00
24306;BME280;12423;48.768;8.850;2023-03-01T01:10:35;97667.97;;;-1.68;100.00
24306;BME280;12423;48.768;8.850;2023-03-01T01:12:36;97669.88;;;-1.73;100.00
24306;BME280;12423;48.768;8.850;2023-03-01T01:14:38;97669.78;;;-1.70;100.00
24306;BME280;12423;48.768;8.850;2023-03-01T01:16:39;97667.41;;;-1.79;100.00
24306;BME280;12423;48.768;8.850;2023-03-01T01:18:40;97670.91;;;-1.80;100.00
24306;BME280;12423;48.768;8.850;2023-03-01T01:20:42;97670.16;;;-1.85;100.00
24306;BME280;12423;48.768;8.850;2023-03-01T01:22:43;97662.94;;;-2.10;100.00
24306;BME280;12423;48.768;8.850;2023-03-01T01:24:45;97663.88;;;-2.11;100.00
24306;BME280;12423;48.768;8.850;2023-03-01T01:26:46;97669.69;;;-1.99;100.00
24306;BME280;12423;48.768;8.850;2023-03-01T01:28:48;97662.06;;;-2.09;100.00
24306;BME280;12423;48.768;8.850;2023-03-01T01:30:49;97666.34;;;-2.05;100.00
24306;BME280;12423;48.768;8.850;2023-03-01T01:32:50;97659.44;;;-2.09;100.00
24306;BME280;12423;48.768;8.850;2023-03-01T01:34:51;97658.25;;;-1.97;100.00
24306;BME280;12423;48.768;8.850;2023-03-01T01:36:53;97652.97;;;-1.95;100.00
24306;BME280;12423;48.768;8.850;2023-03-01T01:38:54;97646.81;;;-1.93;100.00
24306;BME280;12423;48.768;8.850;2023-03-01T01:40:55;97637.53;;;-2.05;100.00
24306;BME280;12423;48.768;8.850;2023-03-01T01:42:56;97643.47;;;-1.98;100.00
24306;BME280;12423;48.768;8.850;2023-03-01T01:45:27;97637.97;;;-1.89;100.00
24306;BME280;12423;48.768;8.850;2023-03-01T01:47:28;97650.19;;;-1.88;100.00
24306;BME280;12423;48.768;8.850;2023-03-01T01:49:35;97642.19;;;-1.83;100.00
24306;BME280;12423;48.768;8.850;2023-03-01T01:51:40;97645.19;;;-1.98;100.00
24306;BME280;12423;48.768;8.850;2023-03-01T01:53:43;97641.88;;;-2.05;100.00
24306;BME280;12423;48.768;8.850;2023-03-01T01:55:49;97642.78;;;-2.05;100.00
24306;BME280;12423;48.768;8.850;2023-03-01T01:57:54;97637.44;;;-2.01;100.00
24306;BME280;12423;48.768;8.850;2023-03-01T01:59:58;97638.34;;;-2.02;100.00
24306;BME280;12423;48.768;8.850;2023-03-01T02:02:03;97628.84;;;-2.07;100.00
24306;BME280;12423;48.768;8.850;2023-03-01T02:04:04;97634.00;;;-2.04;100.00
24306;BME280;12423;48.768;8.850;2023-03-01T02:06:26;97622.63;;;-2.02;100.00
24306;BME280;12423;48.768;8.850;2023-03-01T02:08:32;97631.34;;;-2.02;100.00
24306;BME280;12423;48.768;8.850;2023-03-01T02:10:34;97621.91;;;-2.08;100.00
24306;BME280;12423;48.768;8.850;2023-03-01T02:12:35;97625.47;;;-2.12;100.00
24306;BME280;12423;48.768;8.850;2023-03-01T02:14:37;97630.03;;;-2.18;100.00
24306;BME280;12423;48.768;8.850;2023-03-01T02:16:38;97623.97;;;-2.20;100.00
24306;BME280;12423;48.768;8.850;2023-03-01T02:18:41;97631.56;;;-2.11;100.00
24306;BME280;12423;48.768;8.850;2023-03-01T02:23:07;97628.47;;;-2.26;100.00
24306;BME280;12423;48.768;8.850;2023-03-01T02:25:29;97614.28;;;-2.17;100.00
24306;BME280;12423;48.768;8.850;2023-03-01T02:27:38;97614.16;;;-2.12;100.00
24306;BME280;12423;48.768;8.850;2023-03-01T02:29:41;97613.25;;;-2.11;100.00
24306;BME280;12423;48.768;8.850;2023-03-01T02:31:44;97608.06;;;-2.13;100.00
24306;BME280;12423;48.768;8.850;2023-03-01T02:33:48;97602.72;;;-2.10;100.00
24306;BME280;12423;48.768;8.850;2023-03-01T02:35:49;97594.91;;;-2.11;100.00
24306;BME280;12423;48.768;8.850;2023-03-01T02:37:50;97593.59;;;-2.28;100.00
24306;BME280;12423;48.768;8.850;2023-03-01T02:39:56;97594.38;;;-2.23;100.00
24306;BME280;12423;48.768;8.850;2023-03-01T02:41:59;97592.75;;;-2.28;100.00
24306;BME280;12423;48.768;8.850;2023-03-01T02:44:02;97592.91;;;-2.34;100.00
24306;BME280;12423;48.768;8.850;2023-03-01T02:46:24;97592.00;;;-2.33;100.00
24306;BME280;12423;48.768;8.850;2023-03-01T02:48:25;97588.63;;;-2.37;100.00
24306;BME280;12423;48.768;8.850;2023-03-01T02:52:47;97582.28;;;-2.28;100.00
24306;BME280;12423;48.768;8.850;2023-03-01T02:55:11;97584.44;;;-2.11;100.00
24306;BME280;12423;48.768;8.850;2023-03-01T02:57:14;97585.44;;;-2.15;100.00
24306;BME280;12423;48.768;8.850;2023-03-01T02:59:18;97586.38;;;-2.18;100.00
24306;BME280;12423;48.768;8.850;2023-03-01T03:01:20;97582.66;;;-2.09;100.00
24306;BME280;12423;48.768;8.850;2023-03-01T03:03:22;97571.88;;;-1.98;100.00
24306;BME280;12423;48.768;8.850;2023-03-01T03:05:28;97573.41;;;-1.90;100.00
24306;BME280;12423;48.768;8.850;2023-03-01T03:07:33;97565.38;;;-2.16;100.00
24306;BME280;12423;48.768;8.850;2023-03-01T03:09:35;97563.50;;;-2.11;100.00
24306;BME280;12423;48.768;8.850;2023-03-01T03:11:36;97563.47;;;-2.10;100.00
24306;BME280;12423;48.768;8.850;2023-03-01T03:13:37;97566.66;;;-1.98;100.00
24306;BME280;12423;48.768;8.850;2023-03-01T03:15:48;97567.41;;;-1.95;100.00
24306;BME280;12423;48.768;8.850;2023-03-01T03:17:51;97565.41;;;-1.85;100.00
24306;BME280;12423;48.768;8.850;2023-03-01T03:19:52;97562.66;;;-1.80;100.00
24306;BME280;12423;48.768;8.850;2023-03-01T03:21:53;97558.09;;;-1.74;100.00
24306;BME280;12423;48.768;8.850;2023-03-01T03:23:54;97564.22;;;-1.73;100.00
24306;BME280;12423;48.768;8.850;2023-03-01T03:25:55;97552.03;;;-1.74;100.00
24306;BME280;12423;48.768;8.850;2023-03-01T03:27:57;97561.66;;;-1.75;100.00
24306;BME280;12423;48.768;8.850;2023-03-01T03:29:58;97550.13;;;-1.69;100.00
24306;BME280;12423;48.768;8.850;2023-03-01T03:31:59;97550.00;;;-1.64;100.00
24306;BME280;12423;48.768;8.850;2023-03-01T03:34:00;97547.19;;;-1.58;100.00
24306;BME280;12423;48.768;8.850;2023-03-01T03:36:01;97552.53;;;-1.61;100.00
24306;BME280;12423;48.768;8.850;2023-03-01T03:38:05;97544.63;;;-1.60;100.00
24306;BME280;12423;48.768;8.850;2023-03-01T03:40:07;97541.97;;;-1.58;100.00
24306;BME280;12423;48.768;8.850;2023-03-01T03:42:15;97539.34;;;-1.58;100.00
24306;BME280;12423;48.768;8.850;2023-03-01T03:44:16;97545.97;;;-1.76;100.00
24306;BME280;12423;48.768;8.850;2023-03-01T03:46:17;97542.31;;;-1.71;100.00
24306;BME280;12423;48.768;8.850;2023-03-01T03:48:19;97549.53;;;-1.79;100.00
24306;BME280;12423;48.768;8.850;2023-03-01T03:50:20;97547.84;;;-1.50;100.00
24306;BME280;12423;48.768;8.850;2023-03-01T03:52:21;97544.50;;;-1.57;100.00
24306;BME280;12423;48.768;8.850;2023-03-01T03:54:22;97540.91;;;-1.53;100.00
24306;BME280;12423;48.768;8.850;2023-03-01T03:56:23;97543.31;;;-1.45;100.00
24306;BME280;12423;48.768;8.850;2023-03-01T03:58:26;97544.84;;;-1.38;100.00
24306;BME280;12423;48.768;8.850;2023-03-01T04:00:27;97544.06;;;-1.41;100.00
24306;BME280;12423;48.768;8.850;2023-03-01T04:02:28;97540.53;;;-1.40;100.00
24306;BME280;12423;48.768;8.850;2023-03-01T04:04:29;97539.59;;;-1.38;100.00
24306;BME280;12423;48.768;8.850;2023-03-01T04:06:30;97533.38;;;-1.34;100.00
24306;BME280;12423;48.768;8.850;2023-03-01T04:08:31;97530.84;;;-1.37;100.00
24306;BME280;12423;48.768;8.850;2023-03-01T04:12:36;97528.66;;;-1.52;100.00
24306;BME280;12423;48.768;8.850;2023-03-01T04:14:37;97528.38;;;-1.43;100.00
24306;BME280;12423;48.768;8.850;2023-03-01T04:16:38;97529.09;;;-1.38;100.00
24306;BME280;12423;48.768;8.850;2023-03-01T04:18:39;97523.88;;;-1.38;100.00
24306;BME280;12423;48.768;8.850;2023-03-01T04:20:40;97524.81;;;-1.40;100.00
24306;BME280;12423;48.768;8.850;2023-03-01T04:22:41;97517.72;;;-1.37;100.00
24306;BME280;12423;48.768;8.850;2023-03-01T04:24:42;97525.53;;;-1.35;100.00
24306;BME280;12423;48.768;8.850;2023-03-01T04:26:44;97517.19;;;-1.48;100.00
24306;BME280;12423;48.768;8.850;2023-03-01T04:28:45;97518.47;;;-1.33;100.00
24306;BME280;12423;48.768;8.850;2023-03-01T04:30:46;97523.72;;;-1.33;100.00
24306;BME280;12423;48.768;8.850;2023-03-01T04:32:47;97517.34;;;-1.24;100.00
24306;BME280;12423;48.768;8.850;2023-03-01T04:34:48;97512.81;;;-1.19;100.00
24306;BME280;12423;48.768;8.850;2023-03-01T04:36:49;97507.75;;;-1.25;100.00
24306;BME280;12423;48.768;8.850;2023-03-01T04:38:50;97507.66;;;-1.22;100.00
24306;BME280;12423;48.768;8.850;2023-03-01T04:40:52;97501.59;;;-1.24;100.00
24306;BME280;12423;48.768;8.850;2023-03-01T04:42:53;97497.44;;;-1.30;100.00
24306;BME280;12423;48.768;8.850;2023-03-01T04:44:54;97511.09;;;-1.20;100.00
24306;BME280;12423;48.768;8.850;2023-03-01T04:46:55;97520.72;;;-1.21;100.00
24306;BME280;12423;48.768;8.850;2023-03-01T04:48:56;97521.41;;;-1.16;100.00
24306;BME280;12423;48.768;8.850;2023-03-01T04:51:00;97519.59;;;-1.12;100.00
24306;BME280;12423;48.768;8.850;2023-03-01T04:53:02;97521.53;;;-1.19;100.00
24306;BME280;12423;48.768;8.850;2023-03-01T04:55:03;97509.38;;;-1.21;100.00
24306;BME280;12423;48.768;8.850;2023-03-01T04:57:04;97520.53;;;-1.15;100.00
24306;BME280;12423;48.768;8.850;2023-03-01T04:59:05;97519.69;;;-1.15;100.00
24306;BME280;12423;48.768;8.850;2023-03-01T05:01:14;97525.72;;;-1.13;100.00
24306;BME280;12423;48.768;8.850;2023-03-01T05:03:15;97514.44;;;-1.15;100.00
24306;BME280;12423;48.768;8.850;2023-03-01T05:05:37;97513.50;;;-1.14;100.00
24306;BME280;12423;48.768;8.850;2023-03-01T05:07:39;97512.84;;;-1.21;100.00
24306;BME280;12423;48.768;8.850;2023-03-01T05:09:40;97512.63;;;-1.13;100.00
24306;BME280;12423;48.768;8.850;2023-03-01T05:11:41;97509.81;;;-1.07;100.00
24306;BME280;12423;48.768;8.850;2023-03-01T05:13:42;97514.06;;;-1.04;100.00
24306;BME280;12423;48.768;8.850;2023-03-01T05:15:43;97510.59;;;-1.05;100.00
24306;BME280;12423;48.768;8.850;2023-03-01T05:17:44;97517.66;;;-1.07;100.00
24306;BME280;12423;48.768;8.850;2023-03-01T05:19:45;97508.75;;;-1.01;100.00
24306;BME280;12423;48.768;8.850;2023-03-01T05:21:46;97505.16;;;-0.99;100.00
24306;BME280;12423;48.768;8.850;2023-03-01T05:24:13;97500.22;;;-1.08;100.00
24306;BME280;12423;48.768;8.850;2023-03-01T05:26:16;97500.16;;;-1.06;100.00
24306;BME280;12423;48.768;8.850;2023-03-01T05:28:19;97498.09;;;-0.97;100.00
24306;BME280;12423;48.768;8.850;2023-03-01T05:30:20;97501.63;;;-0.98;100.00
24306;BME280;12423;48.768;8.850;2023-03-01T05:32:22;97504.47;;;-1.04;100.00
24306;BME280;12423;48.768;8.850;2023-03-01T05:34:28;97502.66;;;-1.02;100.00
24306;BME280;12423;48.768;8.850;2023-03-01T05:36:29;97506.81;;;-0.96;100.00
24306;BME280;12423;48.768;8.850;2023-03-01T05:38:30;97506.97;;;-1.01;100.00
24306;BME280;12423;48.768;8.850;2023-03-01T05:40:33;97503.25;;;-0.94;100.00
24306;BME280;12423;48.768;8.850;2023-03-01T05:42:34;97499.84;;;-0.96;100.00
24306;BME280;12423;48.768;8.850;2023-03-01T05:44:35;97501.56;;;-0.96;100.00
24306;BME280;12423;48.768;8.850;2023-03-01T05:46:36;97506.78;;;-0.95;100.00
24306;BME280;12423;48.768;8.850;2023-03-01T05:48:37;97505.25;;;-1.02;100.00
24306;BME280;12423;48.768;8.850;2023-03-01T05:50:41;97505.16;;;-0.99;100.00
24306;BME280;12423;48.768;8.850;2023-03-01T05:52:43;97508.59;;;-0.97;100.00
24306;BME280;12423;48.768;8.850;2023-03-01T05:54:44;97504.25;;;-0.98;100.00
24306;BME280;12423;48.768;8.850;2023-03-01T05:56:45;97511.41;;;-1.03;100.00
24306;BME280;12423;48.768;8.850;2023-03-01T05:58:48;97508.50;;;-0.94;100.00
24306;BME280;12423;48.768;8.850;2023-03-01T06:00:49;97505.16;;;-0.99;100.00
24306;BME280;12423;48.768;8.850;2023-03-01T06:02:50;97505.97;;;-0.97;100.00
24306;BME280;12423;48.768;8.850;2023-03-01T06:04:52;97503.25;;;-0.94;100.00
24306;BME280;12423;48.768;8.850;2023-03-01T06:06:53;97496.38;;;-0.98;100.00
24306;BME280;12423;48.768;8.850;2023-03-01T06:08:54;97504.19;;;-0.96;100.00
24306;BME280;12423;48.768;8.850;2023-03-01T06:10:55;97495.56;;;-1.00;100.00
24306;BME280;12423;48.768;8.850;2023-03-01T06:12:56;97503.34;;;-0.97;100.00
24306;BME280;12423;48.768;8.850;2023-03-01T06:14:57;97502.47;;;-0.96;100.00
24306;BME280;12423;48.768;8.850;2023-03-01T06:16:58;97501.63;;;-0.98;100.00
24306;BME280;12423;48.768;8.850;2023-03-01T06:18:59;97503.91;;;-0.87;100.00
24306;BME280;12423;48.768;8.850;2023-03-01T06:21:00;97498.00;;;-0.94;100.00
24306;BME280;12423;48.768;8.850;2023-03-01T06:23:01;97496.75;;;-1.08;100.00
24306;BME280;12423;48.768;8.850;2023-03-01T06:25:03;97497.69;;;-1.11;100.00
24306;BME280;12423;48.768;8.850;2023-03-01T06:27:04;97498.06;;;-0.95;100.00
24306;BME280;12423;48.768;8.850;2023-03-01T06:29:05;97495.34;;;-0.92;100.00
24306;BME280;12423;48.768;8.850;2023-03-01T06:31:06;97497.88;;;-0.89;100.00
24306;BME280;12423;48.768;8.850;2023-03-01T06:33:09;97504.75;;;-0.86;100.00
24306;BME280;12423;48.768;8.850;2023-03-01T06:35:12;97497.81;;;-0.87;100.00
24306;BME280;12423;48.768;8.850;2023-03-01T06:37:13;97498.09;;;-0.97;100.00
24306;BME280;12423;48.768;8.850;2023-03-01T06:39:14;97502.28;;;-0.91;100.00
24306;BME280;12423;48.768;8.850;2023-03-01T06:41:15;97498.91;;;-0.95;100.00
24306;BME280;12423;48.768;8.850;2023-03-01T06:43:16;97502.09;;;-0.85;100.00
24306;BME280;12423;48.768;8.850;2023-03-01T06:45:18;97500.06;;;-0.77;100.00
24306;BME280;12423;48.768;8.850;2023-03-01T06:47:20;97495.16;;;-0.61;100.00
24306;BME280;12423;48.768;8.850;2023-03-01T06:49:20;97493.63;;;-0.41;100.00
24306;BME280;12423;48.768;8.850;2023-03-01T06:51:21;97496.13;;;-0.38;100.00
24306;BME280;12423;48.768;8.850;2023-03-01T06:53:22;97490.03;;;-0.39;100.00
24306;BME280;12423;48.768;8.850;2023-03-01T06:55:23;97494.56;;;-0.44;100.00
24306;BME280;12423;48.768;8.850;2023-03-01T06:57:24;97491.84;;;-0.66;100.00
24306;BME280;12423;48.768;8.850;2023-03-01T06:59:26;97494.47;;;-0.66;100.00
24306;BME280;12423;48.768;8.850;2023-03-01T07:01:26;97486.91;;;-0.75;100.00
24306;BME280;12423;48.768;8.850;2023-03-01T07:03:27;97483.38;;;-0.74;100.00
24306;BME280;12423;48.768;8.850;2023-03-01T07:05:29;97483.56;;;-0.80;100.00
24306;BME280;12423;48.768;8.850;2023-03-01T07:07:30;97491.59;;;-0.85;100.00
24306;BME280;12423;48.768;8.850;2023-03-01T07:09:32;97487.19;;;-0.84;100.00
24306;BME280;12423;48.768;8.850;2023-03-01T07:11:33;97498.66;;;-0.87;100.00
24306;BME280;12423;48.768;8.850;2023-03-01T07:13:34;97483.56;;;-0.80;100.00
24306;BME280;12423;48.768;8.850;2023-03-01T07:15:35;97488.72;;;-0.77;100.00
24306;BME280;12423;48.768;8.850;2023-03-01T07:17:36;97490.41;;;-0.76;100.00
24306;BME280;12423;48.768;8.850;2023-03-01T07:19:37;97479.19;;;-0.80;100.00
24306;BME280;12423;48.768;8.850;2023-03-01T07:21:38;97487.38;;;-0.89;100.00
24306;BME280;12423;48.768;8.850;2023-03-01T07:23:39;97485.53;;;-0.87;100.00
24306;BME280;12423;48.768;8.850;2023-03-01T07:25:40;97479.06;;;-0.77;100.00
24306;BME280;12423;48.768;8.850;2023-03-01T07:27:41;97470.97;;;-0.69;100.00
24306;BME280;12423;48.768;8.850;2023-03-01T07:29:42;97474.47;;;-0.70;100.00
24306;BME280;12423;48.768;8.850;2023-03-01T07:31:43;97468.38;;;-0.70;100.00
24306;BME280;12423;48.768;8.850;2023-03-01T07:33:44;97470.31;;;-0.76;100.00
24306;BME280;12423;48.768;8.850;2023-03-01T07:35:45;97474.69;;;-0.76;100.00
24306;BME280;12423;48.768;8.850;2023-03-01T07:37:47;97476.41;;;-0.75;100.00
24306;BME280;12423;48.768;8.850;2023-03-01T07:39:47;97476.56;;;-0.80;100.00
24306;BME280;12423;48.768;8.850;2023-03-01T07:41:49;97464.56;;;-0.87;100.00
24306;BME280;12423;48.768;8.850;2023-03-01T07:43:55;97467.72;;;-0.77;100.00
24306;BME280;12423;48.768;8.850;2023-03-01T07:46:00;97470.03;;;-0.68;100.00
24306;BME280;12423;48.768;8.850;2023-03-01T07:48:01;97474.56;;;-0.73;100.00
24306;BME280;12423;48.768;8.850;2023-03-01T07:50:03;97470.16;;;-0.71;100.00
24306;BME280;12423;48.768;8.850;2023-03-01T07:52:04;97469.03;;;-0.64;100.00
24306;BME280;12423;48.768;8.850;2023-03-01T07:54:05;97458.63;;;-0.67;100.00
24306;BME280;12423;48.768;8.850;2023-03-01T07:56:11;97460.03;;;-0.57;100.00
24306;BME280;12423;48.768;8.850;2023-03-01T07:58:13;97459.13;;;-0.56;100.00
24306;BME280;12423;48.768;8.850;2023-03-01T08:00:14;97458.78;;;-0.46;100.00
24306;BME280;12423;48.768;8.850;2023-03-01T08:02:15;97450.41;;;-0.56;100.00
24306;BME280;12423;48.768;8.850;2023-03-01T08:04:16;97458.00;;;-0.48;100.00
24306;BME280;12423;48.768;8.850;2023-03-01T08:06:17;97445.91;;;-0.52;100.00
24306;BME280;12423;48.768;8.850;2023-03-01T08:08:18;97452.53;;;-0.42;100.00
24306;BME280;12423;48.768;8.850;2023-03-01T08:10:20;97444.72;;;-0.44;100.00
24306;BME280;12423;48.768;8.850;2023-03-01T08:12:21;97445.72;;;-0.23;100.00
24306;BME280;12423;48.768;8.850;2023-03-01T08:14:22;97444.03;;;-0.25;100.00
24306;BME280;12423;48.768;8.850;2023-03-01T08:16:23;97442.97;;;-0.20;100.00
24306;BME280;12423;48.768;8.850;2023-03-01T08:18:25;97436.22;;;-0.27;100.00
24306;BME280;12423;48.768;8.850;2023-03-01T08:20:25;97439.66;;;-0.25;100.00
24306;BME280;12423;48.768;8.850;2023-03-01T08:22:26;97446.50;;;-0.21;100.00
24306;BME280;12423;48.768;8.850;2023-03-01T08:24:28;97448.34;;;-0.23;100.00
24306;BME280;12423;48.768;8.850;2023-03-01T08:26:30;97448.03;;;-0.15;100.00
24306;BME280;12423;48.768;8.850;2023-03-01T08:28:31;97445.66;;;-0.21;100.00
24306;BME280;12423;48.768;8.850;2023-03-01T08:30:32;97447.66;;;-0.04;100.00
24306;BME280;12423;48.768;8.850;2023-03-01T08:32:38;97447.84;;;0.15;100.00
24306;BME280;12423;48.768;8.850;2023-03-01T08:34:39;97446.91;;;0.16;100.00
24306;BME280;12423;48.768;8.850;2023-03-01T08:36:43;97437.81;;;0.25;100.00
24306;BME280;12423;48.768;8.850;2023-03-01T08:38:44;97450.16;;;0.23;100.00
24306;BME280;12423;48.768;8.850;2023-03-01T08:40:45;97450.94;;;0.25;100.00
24306;BME280;12423;48.768;8.850;2023-03-01T08:42:46;97455.19;;;0.29;100.00
24306;BME280;12423;48.768;8.850;2023-03-01T08:44:47;97443.31;;;0.18;100.00
24306;BME280;12423;48.768;8.850;2023-03-01T08:46:48;97432.56;;;0.25;100.00
24306;BME280;12423;48.768;8.850;2023-03-01T08:48:50;97444.66;;;0.29;100.00
24306;BME280;12423;48.768;8.850;2023-03-01T08:50:51;97435.75;;;0.33;100.00
24306;BME280;12423;48.768;8.850;2023-03-01T08:52:52;97439.06;;;0.38;100.00
24306;BME280;12423;48.768;8.850;2023-03-01T08:54:53;97432.31;;;0.31;100.00
24306;BME280;12423;48.768;8.850;2023-03-01T08:56:54;97431.97;;;0.40;100.00
24306;BME280;12423;48.768;8.850;2023-03-01T08:58:55;97429.66;;;0.54;100.00
24306;BME280;12423;48.768;8.850;2023-03-01T09:00:56;97436.50;;;0.59;100.00
24306;BME280;12423;48.768;8.850;2023-03-01T09:02:57;97430.22;;;0.63;100.00
24306;BME280;12423;48.768;8.850;2023-03-01T09:04:58;97428.19;;;0.69;100.00
24306;BME280;12423;48.768;8.850;2023-03-01T09:06:59;97422.44;;;0.60;100.00
24306;BME280;12423;48.768;8.850;2023-03-01T09:09:01;97423.28;;;0.60;100.00
24306;BME280;12423;48.768;8.850;2023-03-01T09:11:03;97418.16;;;0.57;100.00
24306;BME280;12423;48.768;8.850;2023-03-01T09:13:04;97414.00;;;0.73;100.00
24306;BME280;12423;48.768;8.850;2023-03-01T09:15:05;97414.28;;;0.66;100.00
24306;BME280;12423;48.768;8.850;2023-03-01T09:17:06;97419.38;;;0.70;100.00
24306;BME280;12423;48.768;8.850;2023-03-01T09:19:07;97409.22;;;0.83;100.00
24306;BME280;12423;48.768;8.850;2023-03-01T09:21:14;97407.38;;;0.85;100.00
24306;BME280;12423;48.768;8.850;2023-03-01T09:23:15;97414.56;;;1.02;100.00
24306;BME280;12423;48.768;8.850;2023-03-01T09:25:16;97406.81;;;0.99;100.00
24306;BME280;12423;48.768;8.850;2023-03-01T09:27:17;97394.13;;;1.09;100.00
24306;BME280;12423;48.768;8.850;2023-03-01T09:29:19;97394.50;;;1.20;100.00
24306;BME280;12423;48.768;8.850;2023-03-01T09:31:21;97385.38;;;1.29;100.00
24306;BME280;12423;48.768;8.850;2023-03-01T09:33:22;97377.41;;;1.31;100.00
24306;BME280;12423;48.768;8.850;2023-03-01T09:35:23;97380.09;;;1.29;100.00
24306;BME280;12423;48.768;8.850;2023-03-01T09:37:24;97391.63;;;1.26;100.00
24306;BME280;12423;48.768;8.850;2023-03-01T09:39:26;97375.66;;;1.50;100.00
24306;BME280;12423;48.768;8.850;2023-03-01T09:41:44;97382.38;;;1.57;100.00
24306;BME280;12423;48.768;8.850;2023-03-01T09:43:50;97378.03;;;1.56;100.00
24306;BME280;12423;48.768;8.850;2023-03-01T09:46:03;97374.56;;;1.75;100.00
24306;BME280;12423;48.768;8.850;2023-03-01T09:48:12;97372.88;;;1.93;100.00
24306;BME280;12423;48.768;8.850;2023-03-01T09:50:21;97376.06;;;1.80;100.00
24306;BME280;12423;48.768;8.850;2023-03-01T09:54:29;97378.50;;;2.04;100.00
24306;BME280;12423;48.768;8.850;2023-03-01T09:59:40;97370.38;;;2.28;100.00
24306;BME280;12423;48.768;8.850;2023-03-01T10:01:59;97377.69;;;2.40;100.00
24306;BME280;12423;48.768;8.850;2023-03-01T10:06:46;97371.25;;;2.46;100.00
24306;BME280;12423;48.768;8.850;2023-03-01T10:08:54;97369.88;;;2.38;98.91
24306;BME280;12423;48.768;8.850;2023-03-01T10:10:57;97366.88;;;2.46;99.49
24306;BME280;12423;48.768;8.850;2023-03-01T10:13:00;97367.03;;;2.61;99.93
24306;BME280;12423;48.768;8.850;2023-03-01T10:15:09;97362.47;;;2.64;98.00
24306;BME280;12423;48.768;8.850;2023-03-01T10:17:49;97364.31;;;2.62;97.59
24306;BME280;12423;48.768;8.850;2023-03-01T10:19:52;97348.06;;;2.71;96.58
24306;BME280;12423;48.768;8.850;2023-03-01T10:21:53;97353.03;;;2.78;97.30
24306;BME280;12423;48.768;8.850;2023-03-01T10:24:15;97356.72;;;2.73;95.86
24306;BME280;12423;48.768;8.850;2023-03-01T10:26:20;97351.09;;;2.81;95.91
24306;BME280;12423;48.768;8.850;2023-03-01T10:28:40;97350.38;;;2.95;95.44
24306;BME280;12423;48.768;8.850;2023-03-01T10:30:45;97350.84;;;3.03;94.77
24306;BME280;12423;48.768;8.850;2023-03-01T10:32:49;97349.53;;;2.94;93.84
24306;BME280;12423;48.768;8.850;2023-03-01T10:34:52;97336.34;;;2.94;94.28
24306;BME280;12423;48.768;8.850;2023-03-01T10:36:56;97340.06;;;3.08;94.82
24306;BME280;12423;48.768;8.850;2023-03-01T10:38:58;97336.53;;;3.25;93.27
24306;BME280;12423;48.768;8.850;2023-03-01T10:41:04;97339.41;;;3.38;92.44
24306;BME280;12423;48.768;8.850;2023-03-01T10:43:11;97337.44;;;3.41;91.50
24306;BME280;12423;48.768;8.850;2023-03-01T10:47:25;97339.59;;;3.68;89.76
24306;BME280;12423;48.768;8.850;2023-03-01T10:49:26;97336.16;;;3.66;90.37
24306;BME280;12423;48.768;8.850;2023-03-01T10:51:27;97330.97;;;3.80;89.65
24306;BME280;12423;48.768;8.850;2023-03-01T10:53:35;97329.22;;;3.97;88.76
24306;BME280;12423;48.768;8.850;2023-03-01T10:55:39;97326.59;;;4.13;87.38
24306;BME280;12423;48.768;8.850;2023-03-01T10:57:40;97333.81;;;4.09;86.70
24306;BME280;12423;48.768;8.850;2023-03-01T10:59:42;97330.41;;;4.23;86.78
24306;BME280;12423;48.768;8.850;2023-03-01T11:01:43;97329.78;;;4.66;85.25